Time,TemperatureF,DewpointF,PressureIn,WindDirection,WindDirectionDegrees,WindSpeedMPH,WindSpeedGustMPH,Humidity,HourlyPrecipIn,Conditions,Clouds,dailyrainin,SoftwareType,DateUTC
2013-11-19 00:00:00,52.5,41.5,30.33,NW,315,0.0,16.0,66,0.00,,,0.00,Wunderground v.1.15,2013-11-19 08:00:00,
2013-11-19 00:10:00,52.0,41.8,30.32,NW,315,0.0,16.0,68,0.00,,,0.00,Wunderground v.1.15,2013-11-19 08:10:00,
2013-11-19 00:20:00,51.6,41.8,30.32,NW,315,0.0,4.0,69,0.00,,,0.00,Wunderground v.1.15,2013-11-19 08:20:00,
2013-11-19 00:25:00,51.4,41.6,30.32,NW,315,0.0,4.0,69,0.00,,,0.00,Wunderground v.1.15,2013-11-19 08:25:00,
2013-11-19 00:35:00,50.8,41.7,30.32,NW,315,0.0,4.0,71,0.00,,,0.00,Wunderground v.1.15,2013-11-19 08:35:00,
2013-11-19 00:45:00,50.3,41.3,30.31,NW,315,0.0,4.0,71,0.00,,,0.00,Wunderground v.1.15,2013-11-19 08:45:00,
2013-11-19 00:50:00,50.0,41.0,30.31,NW,308,0.0,0.0,71,0.00,,,0.00,Wunderground v.1.15,2013-11-19 08:50:00,
2013-11-19 00:55:00,49.8,40.8,30.31,NW,308,0.0,0.0,71,0.00,,,0.00,Wunderground v.1.15,2013-11-19 08:55:00,
2013-11-19 01:05:00,49.5,40.5,30.31,NW,308,0.0,0.0,71,0.00,,,0.00,Wunderground v.1.15,2013-11-19 09:05:00,
2013-11-19 01:10:00,49.6,40.6,30.31,NW,308,0.0,0.0,71,0.00,,,0.00,Wunderground v.1.15,2013-11-19 09:10:00,
2013-11-19 01:15:00,49.3,39.9,30.31,NW,308,0.0,0.0,70,0.00,,,0.00,Wunderground v.1.15,2013-11-19 09:15:00,
2013-11-19 01:20:00,48.8,40.2,30.31,NW,308,0.0,0.0,72,0.00,,,0.00,Wunderground v.1.15,2013-11-19 09:20:00,
2013-11-19 01:30:00,47.9,39.7,30.31,NW,308,0.0,0.0,73,0.00,,,0.00,Wunderground v.1.15,2013-11-19 09:30:00,
2013-11-19 01:35:00,47.9,39.3,30.31,NW,308,0.0,0.0,72,0.00,,,0.00,Wunderground v.1.15,2013-11-19 09:35:00,
2013-11-19 01:45:00,49.0,39.3,30.31,West,267,1.0,3.0,69,0.00,,,0.00,Wunderground v.1.15,2013-11-19 09:45:00,
2013-11-19 01:50:00,49.1,39.0,30.31,West,266,2.0,3.0,68,0.00,,,0.00,Wunderground v.1.15,2013-11-19 09:50:00,
2013-11-19 02:00:00,49.2,38.7,30.31,West,261,4.0,4.0,67,0.00,,,0.00,Wunderground v.1.15,2013-11-19 10:00:00,
2013-11-19 02:05:00,49.2,38.7,30.31,West,262,4.0,4.0,67,0.00,,,0.00,Wunderground v.1.15,2013-11-19 10:05:00,
2013-11-19 02:15:00,49.0,38.5,30.30,West,263,3.0,5.0,67,0.00,,,0.00,Wunderground v.1.15,2013-11-19 10:15:00,
2013-11-19 02:20:00,48.9,38.4,30.29,West,262,4.0,6.0,67,0.00,,,0.00,Wunderground v.1.15,2013-11-19 10:20:00,
2013-11-19 02:25:00,48.7,38.6,30.28,West,262,4.0,6.0,68,0.00,,,0.00,Wunderground v.1.15,2013-11-19 10:25:00,
2013-11-19 02:30:00,48.6,38.5,30.28,West,262,4.0,6.0,68,0.00,,,0.00,Wunderground v.1.15,2013-11-19 10:30:00,
2013-11-19 02:35:00,48.5,38.4,30.29,West,262,4.0,6.0,68,0.00,,,0.00,Wunderground v.1.15,2013-11-19 10:35:00,
2013-11-19 02:45:00,48.2,38.5,30.28,West,263,4.0,6.0,69,0.00,,,0.00,Wunderground v.1.15,2013-11-19 10:45:00,
2013-11-19 02:50:00,48.3,38.6,30.29,West,267,5.0,5.0,69,0.00,,,0.00,Wunderground v.1.15,2013-11-19 10:50:00,
2013-11-19 03:00:00,48.2,38.5,30.28,West,260,5.0,7.0,69,0.00,,,0.00,Wunderground v.1.15,2013-11-19 11:00:00,
2013-11-19 03:05:00,48.1,38.4,30.28,West,271,5.0,7.0,69,0.00,,,0.00,Wunderground v.1.15,2013-11-19 11:05:00,
2013-11-19 03:15:00,48.1,38.4,30.27,West,264,5.0,7.0,69,0.00,,,0.00,Wunderground v.1.15,2013-11-19 11:15:00,
2013-11-19 03:20:00,47.9,38.6,30.27,West,272,5.0,8.0,70,0.00,,,0.00,Wunderground v.1.15,2013-11-19 11:20:00,
2013-11-19 05:10:00,47.8,38.8,30.27,West,273,4.0,4.0,71,0.00,,,0.00,Wunderground v.1.15,2013-11-19 13:10:00,
2013-11-19 05:15:00,47.9,38.9,30.27,West,270,3.0,9.0,71,0.00,,,0.00,Wunderground v.1.15,2013-11-19 13:15:00,
2013-11-19 05:20:00,48.0,38.7,30.27,West,270,2.0,9.0,70,0.00,,,0.00,Wunderground v.1.15,2013-11-19 13:20:00,
2013-11-19 05:30:00,46.7,38.1,30.29,WSW,256,3.0,9.0,72,0.00,,,0.00,Wunderground v.1.15,2013-11-19 13:30:00,
2013-11-19 05:35:00,46.1,37.9,30.29,West,260,4.0,9.0,73,0.00,,,0.00,Wunderground v.1.15,2013-11-19 13:35:00,
2013-11-19 05:45:00,46.6,38.8,30.29,West,261,5.0,6.0,74,0.00,,,0.00,Wunderground v.1.15,2013-11-19 13:45:00,
2013-11-19 05:50:00,46.9,38.7,30.29,West,265,4.0,6.0,73,0.00,,,0.00,Wunderground v.1.15,2013-11-19 13:50:00,
2013-11-19 06:00:00,47.0,38.4,30.29,West,267,2.0,6.0,72,0.00,,,0.00,Wunderground v.1.15,2013-11-19 14:00:00,
2013-11-19 06:05:00,47.1,38.9,30.29,West,269,2.0,6.0,73,0.00,,,0.00,Wunderground v.1.15,2013-11-19 14:05:00,
2013-11-19 06:10:00,47.3,38.7,30.29,West,264,3.0,6.0,72,0.00,,,0.00,Wunderground v.1.15,2013-11-19 14:10:00,
2013-11-19 06:15:00,47.2,38.6,30.29,West,259,4.0,6.0,72,0.00,,,0.00,Wunderground v.1.15,2013-11-19 14:15:00,
2013-11-19 06:20:00,46.5,38.3,30.28,West,260,5.0,7.0,73,0.00,,,0.00,Wunderground v.1.15,2013-11-19 14:20:00,
2013-11-19 06:30:00,46.2,38.4,30.28,West,260,5.0,7.0,74,0.00,,,0.00,Wunderground v.1.15,2013-11-19 14:30:00,
2013-11-19 06:35:00,46.2,38.4,30.27,West,269,5.0,7.0,74,0.00,,,0.00,Wunderground v.1.15,2013-11-19 14:35:00,
2013-11-19 06:40:00,46.2,38.4,30.26,West,270,5.0,5.0,74,0.00,,,0.00,Wunderground v.1.15,2013-11-19 14:40:00,
2013-11-19 06:45:00,46.1,38.3,30.27,West,269,5.0,7.0,74,0.00,,,0.00,Wunderground v.1.15,2013-11-19 14:45:00,
2013-11-19 06:50:00,46.2,38.7,30.28,West,275,4.0,9.0,75,0.00,,,0.00,Wunderground v.1.15,2013-11-19 14:50:00,
2013-11-19 06:55:00,46.7,38.9,30.29,WNW,284,3.0,9.0,74,0.00,,,0.00,Wunderground v.1.15,2013-11-19 14:55:00,
2013-11-19 07:05:00,47.9,39.3,30.29,WNW,283,1.0,9.0,72,0.00,,,0.00,Wunderground v.1.15,2013-11-19 15:05:00,
2013-11-19 07:10:00,48.4,39.8,30.29,WNW,283,0.0,9.0,72,0.00,,,0.00,Wunderground v.1.15,2013-11-19 15:10:00,
2013-11-19 07:20:00,49.4,39.7,30.29,WNW,284,0.0,7.0,69,0.00,,,0.00,Wunderground v.1.15,2013-11-19 15:20:00,
2013-11-19 07:30:00,50.0,39.8,30.29,West,278,0.0,7.0,68,0.00,,,0.00,Wunderground v.1.15,2013-11-19 15:30:00,
2013-11-19 07:35:00,50.6,40.4,30.29,West,267,0.0,7.0,68,0.00,,,0.00,Wunderground v.1.15,2013-11-19 15:35:00,
2013-11-19 07:45:00,51.6,40.6,30.29,West,273,3.0,3.0,66,0.00,,,0.00,Wunderground v.1.15,2013-11-19 15:45:00,
2013-11-19 07:50:00,52.2,40.8,30.28,West,271,1.0,1.0,65,0.00,,,0.00,Wunderground v.1.15,2013-11-19 15:50:00,
2013-11-19 08:00:00,53.4,40.7,30.28,West,271,0.0,6.0,62,0.00,,,0.00,Wunderground v.1.15,2013-11-19 16:00:00,
2013-11-19 08:05:00,54.1,40.9,30.29,West,271,0.0,6.0,61,0.00,,,0.00,Wunderground v.1.15,2013-11-19 16:05:00,
2013-11-19 08:15:00,55.0,41.4,30.28,West,271,0.0,6.0,60,0.00,,,0.00,Wunderground v.1.15,2013-11-19 16:15:00,
2013-11-19 08:20:00,55.8,40.8,30.28,West,271,0.0,7.0,57,0.00,,,0.00,Wunderground v.1.15,2013-11-19 16:20:00,
2013-11-19 08:30:00,56.1,41.1,30.28,West,271,0.0,7.0,57,0.00,,,0.00,Wunderground v.1.15,2013-11-19 16:30:00,
2013-11-19 08:35:00,56.0,40.5,30.28,West,272,0.0,7.0,56,0.00,,,0.00,Wunderground v.1.15,2013-11-19 16:35:00,
2013-11-19 08:45:00,55.7,40.7,30.28,West,271,0.0,7.0,57,0.00,,,0.00,Wunderground v.1.15,2013-11-19 16:45:00,
2013-11-19 08:50:00,55.7,40.7,30.29,West,272,0.0,0.0,57,0.00,,,0.00,Wunderground v.1.15,2013-11-19 16:50:00,
2013-11-19 09:00:00,56.0,40.5,30.28,West,266,0.0,0.0,56,0.00,,,0.00,Wunderground v.1.15,2013-11-19 17:00:00,
2013-11-19 09:05:00,56.0,40.5,30.28,WSW,254,0.0,0.0,56,0.00,,,0.00,Wunderground v.1.15,2013-11-19 17:05:00,
2013-11-19 09:15:00,56.4,40.9,30.28,SW,233,1.0,3.0,56,0.00,,,0.00,Wunderground v.1.15,2013-11-19 17:15:00,
2013-11-19 09:20:00,56.5,41.0,30.28,SW,227,2.0,3.0,56,0.00,,,0.00,Wunderground v.1.15,2013-11-19 17:20:00,
2013-11-19 09:30:00,56.8,40.8,30.28,South,174,3.0,3.0,55,0.00,,,0.00,Wunderground v.1.15,2013-11-19 17:30:00,
2013-11-19 09:35:00,57.0,40.5,30.28,SSE,167,3.0,3.0,54,0.00,,,0.00,Wunderground v.1.15,2013-11-19 17:35:00,
2013-11-19 09:45:00,57.2,41.2,30.28,SSE,167,2.0,3.0,55,0.00,,,0.00,Wunderground v.1.15,2013-11-19 17:45:00,
2013-11-19 09:50:00,57.3,40.8,30.27,SSE,159,1.0,1.0,54,0.00,,,0.00,Wunderground v.1.15,2013-11-19 17:50:00,
2013-11-19 09:55:00,57.6,40.6,30.27,SSE,156,2.0,3.0,53,0.00,,,0.00,Wunderground v.1.15,2013-11-19 17:55:00,
2013-11-19 10:05:00,57.9,40.9,30.27,SSE,156,1.0,8.0,53,0.00,,,0.00,Wunderground v.1.15,2013-11-19 18:05:00,
2013-11-19 10:15:00,57.9,40.9,30.26,SSE,156,0.0,8.0,53,0.00,,,0.00,Wunderground v.1.15,2013-11-19 18:15:00,
2013-11-19 10:20:00,58.1,41.0,30.27,SSE,156,1.0,7.0,53,0.00,,,0.00,Wunderground v.1.15,2013-11-19 18:20:00,
2013-11-19 10:30:00,57.9,40.9,30.28,SE,133,4.0,4.0,53,0.00,,,0.00,Wunderground v.1.15,2013-11-19 18:30:00,
2013-11-19 10:35:00,57.6,40.6,30.28,SE,133,3.0,5.0,53,0.00,,,0.00,Wunderground v.1.15,2013-11-19 18:35:00,
2013-11-19 10:45:00,57.6,40.6,30.27,SE,141,3.0,4.0,53,0.00,,,0.00,Wunderground v.1.15,2013-11-19 18:45:00,
2013-11-19 10:50:00,57.6,40.6,30.26,SE,141,2.0,7.0,53,0.00,,,0.00,Wunderground v.1.15,2013-11-19 18:50:00,
2013-11-19 10:55:00,57.7,40.7,30.26,SE,141,2.0,7.0,53,0.00,,,0.00,Wunderground v.1.15,2013-11-19 18:55:00,
2013-11-19 11:00:00,57.9,40.9,30.26,SE,141,2.0,2.0,53,0.00,,,0.00,Wunderground v.1.15,2013-11-19 19:00:00,
2013-11-19 11:10:00,58.0,40.5,30.25,SE,141,0.0,7.0,52,0.00,,,0.00,Wunderground v.1.15,2013-11-19 19:10:00,
2013-11-19 11:15:00,58.1,40.6,30.25,SE,141,0.0,7.0,52,0.00,,,0.00,Wunderground v.1.15,2013-11-19 19:15:00,
2013-11-19 11:20:00,58.0,40.5,30.25,SE,141,0.0,7.0,52,0.00,,,0.00,Wunderground v.1.15,2013-11-19 19:20:00,
2013-11-19 11:30:00,58.0,40.5,30.25,SE,141,3.0,7.0,52,0.00,,,0.00,Wunderground v.1.15,2013-11-19 19:30:00,
2013-11-19 11:35:00,58.1,40.6,30.24,SE,141,2.0,7.0,52,0.00,,,0.00,Wunderground v.1.15,2013-11-19 19:35:00,
2013-11-19 11:45:00,58.1,40.1,30.24,SE,141,2.0,2.0,51,0.00,,,0.00,Wunderground v.1.15,2013-11-19 19:45:00,
2013-11-19 11:50:00,58.4,40.3,30.24,SE,141,1.0,1.0,51,0.00,,,0.00,Wunderground v.1.15,2013-11-19 19:50:00,
2013-11-19 11:55:00,59.1,40.5,30.23,SE,141,0.0,7.0,50,0.00,,,0.00,Wunderground v.1.15,2013-11-19 19:55:00,
2013-11-19 12:00:00,59.2,40.6,30.23,SE,141,0.0,7.0,50,0.00,,,0.00,Wunderground v.1.15,2013-11-19 20:00:00,
2013-11-19 12:10:00,59.7,40.0,30.23,SE,141,0.0,7.0,48,0.00,,,0.00,Wunderground v.1.15,2013-11-19 20:10:00,
2013-11-19 12:20:00,60.0,40.2,30.22,SE,141,0.0,6.0,48,0.00,,,0.00,Wunderground v.1.15,2013-11-19 20:20:00,
2013-11-19 12:30:00,60.2,40.4,30.22,SE,141,1.0,1.0,48,0.00,,,0.00,Wunderground v.1.15,2013-11-19 20:30:00,
2013-11-19 12:35:00,60.4,40.1,30.22,SE,141,1.0,3.0,47,0.00,,,0.00,Wunderground v.1.15,2013-11-19 20:35:00,
2013-11-19 12:45:00,60.5,40.2,30.22,SE,140,2.0,6.0,47,0.00,,,0.00,Wunderground v.1.15,2013-11-19 20:45:00,
2013-11-19 12:50:00,60.8,40.4,30.22,SE,140,2.0,2.0,47,0.00,,,0.00,Wunderground v.1.15,2013-11-19 20:50:00,
2013-11-19 12:55:00,61.3,40.3,30.22,SE,137,1.0,5.0,46,0.00,,,0.00,Wunderground v.1.15,2013-11-19 20:55:00,
2013-11-19 13:00:00,61.9,40.3,30.21,SE,129,2.0,5.0,45,0.00,,,0.00,Wunderground v.1.15,2013-11-19 21:00:00,
2013-11-19 13:10:00,61.7,40.1,30.20,SE,129,3.0,5.0,45,0.00,,,0.00,Wunderground v.1.15,2013-11-19 21:10:00,
2013-11-19 13:15:00,61.7,40.1,30.20,SE,139,2.0,5.0,45,0.00,,,0.00,Wunderground v.1.15,2013-11-19 21:15:00,
2013-11-19 13:20:00,61.7,40.1,30.20,SSE,160,2.0,8.0,45,0.00,,,0.00,Wunderground v.1.15,2013-11-19 21:20:00,
2013-11-19 13:30:00,62.0,40.4,30.20,SSE,154,2.0,2.0,45,0.00,,,0.00,Wunderground v.1.15,2013-11-19 21:30:00,
2013-11-19 13:35:00,61.6,40.0,30.20,SSE,148,3.0,3.0,45,0.00,,,0.00,Wunderground v.1.15,2013-11-19 21:35:00,
2013-11-19 13:45:00,61.6,40.0,30.20,SSE,148,3.0,8.0,45,0.00,,,0.00,Wunderground v.1.15,2013-11-19 21:45:00,
2013-11-19 13:50:00,62.3,40.1,30.20,SE,134,4.0,10.0,44,0.00,,,0.00,Wunderground v.1.15,2013-11-19 21:50:00,
2013-11-19 14:00:00,61.4,39.9,30.20,SSE,163,5.0,10.0,45,0.00,,,0.00,Wunderground v.1.15,2013-11-19 22:00:00,
2013-11-19 14:05:00,60.9,40.0,30.20,South,170,6.0,10.0,46,0.00,,,0.00,Wunderground v.1.15,2013-11-19 22:05:00,
2013-11-19 14:15:00,61.1,40.1,30.20,SSE,155,6.0,10.0,46,0.00,,,0.00,Wunderground v.1.15,2013-11-19 22:15:00,
2013-11-19 14:20:00,61.0,40.1,30.20,SSW,197,7.0,7.0,46,0.00,,,0.00,Wunderground v.1.15,2013-11-19 22:20:00,
2013-11-19 14:25:00,61.4,39.9,30.20,South,186,5.0,12.0,45,0.00,,,0.00,Wunderground v.1.15,2013-11-19 22:25:00,
2013-11-19 14:35:00,61.4,38.7,30.19,SSW,206,2.0,12.0,43,0.00,,,0.00,Wunderground v.1.15,2013-11-19 22:35:00,
2013-11-19 14:45:00,62.0,37.4,30.20,SSW,211,2.0,12.0,40,0.00,,,0.00,Wunderground v.1.15,2013-11-19 22:45:00,
2013-11-19 14:50:00,62.4,37.1,30.19,SSW,207,1.0,12.0,39,0.00,,,0.00,Wunderground v.1.15,2013-11-19 22:50:00,
2013-11-19 15:00:00,62.5,37.2,30.20,SSW,207,1.0,1.0,39,0.00,,,0.00,Wunderground v.1.15,2013-11-19 23:00:00,
2013-11-19 15:05:00,62.5,36.5,30.20,SSW,204,1.0,12.0,38,0.00,,,0.00,Wunderground v.1.15,2013-11-19 23:05:00,
2013-11-19 15:15:00,62.8,34.0,30.19,ESE,119,2.0,12.0,34,0.00,,,0.00,Wunderground v.1.15,2013-11-19 23:15:00,
2013-11-19 15:20:00,62.9,35.5,30.20,SE,128,3.0,7.0,36,0.00,,,0.00,Wunderground v.1.15,2013-11-19 23:20:00,
2013-11-19 15:30:00,62.8,35.4,30.19,SSE,151,2.0,7.0,36,0.00,,,0.00,Wunderground v.1.15,2013-11-19 23:30:00,
2013-11-19 15:35:00,62.8,35.4,30.19,SE,143,1.0,7.0,36,0.00,,,0.00,Wunderground v.1.15,2013-11-19 23:35:00,
2013-11-19 15:45:00,62.2,33.5,30.19,SSE,150,5.0,7.0,34,0.00,,,0.00,Wunderground v.1.15,2013-11-19 23:45:00,
2013-11-19 15:50:00,62.2,32.7,30.20,SSE,147,3.0,9.0,33,0.00,,,0.00,Wunderground v.1.15,2013-11-19 23:50:00,
2013-11-19 16:00:00,61.8,35.2,30.20,SE,138,2.0,9.0,37,0.00,,,0.00,Wunderground v.1.15,2013-11-20 00:00:00,
2013-11-19 16:05:00,61.6,35.7,30.20,SE,138,2.0,9.0,38,0.00,,,0.00,Wunderground v.1.15,2013-11-20 00:05:00,
2013-11-19 16:15:00,61.2,36.0,30.20,SE,139,1.0,4.0,39,0.00,,,0.00,Wunderground v.1.15,2013-11-20 00:15:00,
2013-11-19 16:20:00,60.9,35.8,30.20,SE,139,1.0,1.0,39,0.00,,,0.00,Wunderground v.1.15,2013-11-20 00:20:00,
2013-11-19 16:30:00,60.6,36.8,30.20,SE,139,1.0,1.0,41,0.00,,,0.00,Wunderground v.1.15,2013-11-20 00:30:00,
2013-11-19 16:35:00,60.2,36.4,30.20,SE,139,0.0,8.0,41,0.00,,,0.00,Wunderground v.1.15,2013-11-20 00:35:00,
2013-11-19 16:40:00,59.9,36.7,30.20,SE,139,1.0,1.0,42,0.00,,,0.00,Wunderground v.1.15,2013-11-20 00:40:00,
2013-11-19 16:45:00,59.6,36.5,30.20,SE,139,1.0,8.0,42,0.00,,,0.00,Wunderground v.1.15,2013-11-20 00:45:00,
2013-11-19 16:55:00,59.3,36.8,30.20,SE,139,0.0,5.0,43,0.00,,,0.00,Wunderground v.1.15,2013-11-20 00:55:00,
2013-11-19 17:00:00,59.0,36.5,30.20,SE,139,0.0,5.0,43,0.00,,,0.00,Wunderground v.1.15,2013-11-20 01:00:00,
2013-11-19 17:05:00,58.8,36.9,30.21,SE,139,0.0,5.0,44,0.00,,,0.00,Wunderground v.1.15,2013-11-20 01:05:00,
2013-11-19 17:15:00,58.2,38.6,30.21,SE,139,0.0,5.0,48,0.00,,,0.00,Wunderground v.1.15,2013-11-20 01:15:00,
2013-11-19 17:20:00,58.0,38.9,30.21,SE,139,0.0,5.0,49,0.00,,,0.00,Wunderground v.1.15,2013-11-20 01:20:00,
2013-11-19 17:30:00,57.3,39.8,30.21,SE,139,0.0,5.0,52,0.00,,,0.00,Wunderground v.1.15,2013-11-20 01:30:00,
2013-11-19 17:35:00,57.0,40.0,30.22,SE,139,0.0,5.0,53,0.00,,,0.00,Wunderground v.1.15,2013-11-20 01:35:00,
2013-11-19 17:45:00,56.5,40.0,30.21,SE,139,0.0,5.0,54,0.00,,,0.00,Wunderground v.1.15,2013-11-20 01:45:00,
2013-11-19 17:50:00,56.1,40.1,30.21,SE,139,0.0,0.0,55,0.00,,,0.00,Wunderground v.1.15,2013-11-20 01:50:00,
2013-11-19 18:00:00,55.8,39.4,30.21,SE,139,0.0,0.0,54,0.00,,,0.00,Wunderground v.1.15,2013-11-20 02:00:00,
2013-11-19 18:05:00,55.5,38.6,30.21,SE,139,0.0,0.0,53,0.00,,,0.00,Wunderground v.1.15,2013-11-20 02:05:00,
2013-11-19 18:15:00,55.3,38.4,30.21,SE,139,0.0,0.0,53,0.00,,,0.00,Wunderground v.1.15,2013-11-20 02:15:00,
2013-11-19 18:20:00,55.3,38.4,30.21,SE,139,0.0,0.0,53,0.00,,,0.00,Wunderground v.1.15,2013-11-20 02:20:00,
2013-11-19 18:30:00,55.3,38.4,30.21,SE,139,0.0,0.0,53,0.00,,,0.00,Wunderground v.1.15,2013-11-20 02:30:00,
2013-11-19 18:35:00,55.1,38.3,30.21,SE,139,0.0,0.0,53,0.00,,,0.00,Wunderground v.1.15,2013-11-20 02:35:00,
2013-11-19 18:45:00,54.9,37.1,30.21,SE,139,0.0,0.0,51,0.00,,,0.00,Wunderground v.1.15,2013-11-20 02:45:00,
2013-11-19 18:50:00,54.9,37.1,30.21,SE,139,0.0,0.0,51,0.00,,,0.00,Wunderground v.1.15,2013-11-20 02:50:00,
2013-11-19 19:00:00,54.7,36.9,30.22,SE,139,0.0,0.0,51,0.00,,,0.00,Wunderground v.1.15,2013-11-20 03:00:00,
2013-11-19 19:05:00,54.6,37.3,30.22,SE,139,0.0,0.0,52,0.00,,,0.00,Wunderground v.1.15,2013-11-20 03:05:00,
2013-11-19 19:15:00,54.7,36.9,30.22,SE,139,0.0,0.0,51,0.00,,,0.00,Wunderground v.1.15,2013-11-20 03:15:00,
2013-11-19 19:20:00,54.5,36.7,30.22,SE,139,0.0,1.0,51,0.00,,,0.00,Wunderground v.1.15,2013-11-20 03:20:00,
2013-11-19 19:25:00,54.5,37.2,30.22,SE,139,0.0,1.0,52,0.00,,,0.00,Wunderground v.1.15,2013-11-20 03:25:00,
2013-11-19 19:35:00,54.6,36.8,30.21,SE,139,0.0,1.0,51,0.00,,,0.00,Wunderground v.1.15,2013-11-20 03:35:00,
2013-11-19 19:45:00,55.2,36.4,30.20,SE,139,1.0,3.0,49,0.00,,,0.00,Wunderground v.1.15,2013-11-20 03:45:00,
2013-11-19 19:55:00,55.0,36.2,30.20,SSE,166,3.0,3.0,49,0.00,,,0.00,Wunderground v.1.15,2013-11-20 03:55:00,
2013-11-19 20:00:00,55.0,36.2,30.21,SSE,166,1.0,1.0,49,0.00,,,0.00,Wunderground v.1.15,2013-11-20 04:00:00,
2013-11-19 20:05:00,55.0,36.2,30.20,South,171,1.0,3.0,49,0.00,,,0.00,Wunderground v.1.15,2013-11-20 04:05:00,
2013-11-19 20:15:00,55.1,35.7,30.21,South,171,0.0,2.0,48,0.00,,,0.00,Wunderground v.1.15,2013-11-20 04:15:00,
2013-11-19 20:20:00,55.1,36.3,30.20,South,171,0.0,6.0,49,0.00,,,0.00,Wunderground v.1.15,2013-11-20 04:20:00,
2013-11-19 20:25:00,55.2,36.4,30.20,South,171,0.0,6.0,49,0.00,,,0.00,Wunderground v.1.15,2013-11-20 04:25:00,
2013-11-19 20:35:00,55.4,36.5,30.21,South,171,0.0,6.0,49,0.00,,,0.00,Wunderground v.1.15,2013-11-20 04:35:00,
2013-11-19 20:45:00,55.3,36.5,30.21,South,171,0.0,6.0,49,0.00,,,0.00,Wunderground v.1.15,2013-11-20 04:45:00,
2013-11-19 20:50:00,55.1,36.3,30.21,South,171,0.0,3.0,49,0.00,,,0.00,Wunderground v.1.15,2013-11-20 04:50:00,
2013-11-19 21:00:00,54.7,35.9,30.21,South,171,0.0,3.0,49,0.00,,,0.00,Wunderground v.1.15,2013-11-20 05:00:00,
2013-11-19 21:05:00,54.6,35.8,30.22,South,171,0.0,3.0,49,0.00,,,0.00,Wunderground v.1.15,2013-11-20 05:05:00,
2013-11-19 21:10:00,54.4,36.1,30.22,South,171,1.0,3.0,50,0.00,,,0.00,Wunderground v.1.15,2013-11-20 05:10:00,
2013-11-19 21:15:00,54.2,35.9,30.21,South,190,3.0,5.0,50,0.00,,,0.00,Wunderground v.1.15,2013-11-20 05:15:00,
2013-11-19 21:20:00,53.8,35.6,30.21,SSW,204,4.0,5.0,50,0.00,,,0.00,Wunderground v.1.15,2013-11-20 05:20:00,
2013-11-19 21:25:00,53.6,35.4,30.22,SSW,204,4.0,5.0,50,0.00,,,0.00,Wunderground v.1.15,2013-11-20 05:25:00,
2013-11-19 21:30:00,53.4,35.2,30.22,SSW,204,4.0,5.0,50,0.00,,,0.00,Wunderground v.1.15,2013-11-20 05:30:00,
2013-11-19 21:35:00,53.1,35.4,30.22,SSW,207,3.0,5.0,51,0.00,,,0.00,Wunderground v.1.15,2013-11-20 05:35:00,
2013-11-19 21:40:00,52.8,35.2,30.21,SSW,212,3.0,5.0,51,0.00,,,0.00,Wunderground v.1.15,2013-11-20 05:40:00,
2013-11-19 21:45:00,52.9,35.2,30.21,SSW,212,3.0,5.0,51,0.00,,,0.00,Wunderground v.1.15,2013-11-20 05:45:00,
2013-11-19 21:55:00,52.9,35.2,30.21,SSW,212,1.0,7.0,51,0.00,,,0.00,Wunderground v.1.15,2013-11-20 05:55:00,
2013-11-19 22:00:00,52.8,35.6,30.21,SSW,212,1.0,1.0,52,0.00,,,0.00,Wunderground v.1.15,2013-11-20 06:00:00,
2013-11-19 22:05:00,52.7,35.6,30.21,SSW,212,1.0,7.0,52,0.00,,,0.00,Wunderground v.1.15,2013-11-20 06:05:00,
2013-11-19 22:15:00,52.2,35.1,30.21,SSW,212,1.0,7.0,52,0.00,,,0.00,Wunderground v.1.15,2013-11-20 06:15:00,
2013-11-19 22:20:00,52.2,35.1,30.21,SSW,212,2.0,2.0,52,0.00,,,0.00,Wunderground v.1.15,2013-11-20 06:20:00,
2013-11-19 22:25:00,52.2,35.6,30.21,SSW,212,1.0,7.0,53,0.00,,,0.00,Wunderground v.1.15,2013-11-20 06:25:00,
2013-11-19 22:35:00,52.4,35.8,30.20,SSW,212,0.0,7.0,53,0.00,,,0.00,Wunderground v.1.15,2013-11-20 06:35:00,
2013-11-19 22:40:00,52.5,35.4,30.21,SSW,212,0.0,7.0,52,0.00,,,0.00,Wunderground v.1.15,2013-11-20 06:40:00,
2013-11-19 22:50:00,52.2,35.6,30.21,SSW,212,0.0,4.0,53,0.00,,,0.00,Wunderground v.1.15,2013-11-20 06:50:00,
2013-11-19 23:00:00,51.9,35.8,30.21,SSW,212,0.0,4.0,54,0.00,,,0.00,Wunderground v.1.15,2013-11-20 07:00:00,
2013-11-19 23:05:00,51.7,35.6,30.20,SSW,212,1.0,4.0,54,0.00,,,0.00,Wunderground v.1.15,2013-11-20 07:05:00,
2013-11-19 23:15:00,51.7,35.6,30.20,SSW,212,1.0,4.0,54,0.00,,,0.00,Wunderground v.1.15,2013-11-20 07:15:00,
2013-11-19 23:20:00,51.7,35.6,30.20,SSW,212,0.0,5.0,54,0.00,,,0.00,Wunderground v.1.15,2013-11-20 07:20:00,
2013-11-19 23:30:00,51.7,35.6,30.20,SSW,212,1.0,1.0,54,0.00,,,0.00,Wunderground v.1.15,2013-11-20 07:30:00,
2013-11-19 23:35:00,51.8,35.7,30.20,SSW,212,2.0,2.0,54,0.00,,,0.00,Wunderground v.1.15,2013-11-20 07:35:00,
2013-11-19 23:40:00,52.0,35.9,30.20,SSW,212,1.0,5.0,54,0.00,,,0.00,Wunderground v.1.15,2013-11-20 07:40:00,
2013-11-19 23:45:00,52.4,35.8,30.20,SW,215,2.0,5.0,53,0.00,,,0.00,Wunderground v.1.15,2013-11-20 07:45:00,
2013-11-19 23:50:00,52.8,36.1,30.20,SW,215,3.0,3.0,53,0.00,,,0.00,Wunderground v.1.15,2013-11-20 07:50:00,